Time;durP1;ratioP1;P1;durP2;ratioP2;P2;SDS_P1;SDS_P2;PMS_P1;PMS_P2;Temp;Humidity;BMP_temperature;BMP_pressure;BME280_temperature;BME280_humidity;BME280_pressure;Samples;Min_cycle;Max_cycle;Signal;HPM_P1;HPM_P2
2024/01/24 00:02:21;;;;;;;6.63;1.67;;;8.90;1.00;;;;;;5098530;28;20172;-42
2024/01/24 00:04:47;;;;;;;12.00;1.70;;;8.90;1.00;;;;;;5079928;28;20453;-42
2024/01/24 00:07:13;;;;;;;6.47;1.30;;;8.90;7.70;;;;;;5098118;28;20207;-44
2024/01/24 00:09:39;;;;;;;3.97;1.67;;;8.90;99.90;;;;;;5098475;28;20184;-43
2024/01/24 00:12:05;;;;;;;4.73;1.20;;;8.80;99.90;;;;;;5098547;28;20407;-42
2024/01/24 00:14:30;;;;;;;3.43;1.80;;;8.90;99.90;;;;;;5099085;28;20341;-42
2024/01/24 00:16:56;;;;;;;4.87;1.50;;;8.90;99.90;;;;;;5098470;28;20469;-42
2024/01/24 00:19:21;;;;;;;4.30;1.43;;;8.90;99.90;;;;;;5098757;28;20176;-42
2024/01/24 00:21:47;;;;;;;4.77;1.40;;;8.90;99.90;;;;;;5098588;28;20180;-42
2024/01/24 00:24:12;;;;;;;4.70;1.30;;;8.90;99.90;;;;;;5097412;28;20299;-43
2024/01/24 00:26:38;;;;;;;6.10;1.73;;;9.00;99.90;;;;;;5080244;28;20181;-44
2024/01/24 00:29:04;;;;;;;4.13;1.23;;;9.00;99.90;;;;;;5098102;28;20217;-44
2024/01/24 00:31:29;;;;;;;1.97;1.07;;;9.10;99.90;;;;;;5098201;28;20176;-45
2024/01/24 00:33:55;;;;;;;5.53;1.77;;;9.10;99.90;;;;;;5098194;28;20434;-43
2024/01/24 00:36:23;;;;;;;9.13;2.07;;;9.00;99.90;;;;;;5097986;28;20168;-44
2024/01/24 00:38:48;;;;;;;4.30;1.30;;;9.10;99.90;;;;;;5098336;28;20192;-45
2024/01/24 00:41:14;;;;;;;2.20;0.93;;;9.10;99.90;;;;;;5097812;28;20728;-43
2024/01/24 00:43:39;;;;;;;3.33;1.20;;;9.20;99.90;;;;;;5097687;28;20581;-44
2024/01/24 00:46:05;;;;;;;5.93;1.47;;;9.20;99.90;;;;;;5080006;28;20287;-52
2024/01/24 00:48:31;;;;;;;4.40;1.43;;;9.30;99.90;;;;;;5097796;28;20212;-47
2024/01/24 00:50:57;;;;;;;8.83;1.97;;;9.30;99.90;;;;;;5098101;28;20177;-44
2024/01/24 00:53:23;;;;;;;2.77;1.27;;;9.30;99.90;;;;;;5096701;28;20436;-46
2024/01/24 00:55:49;;;;;;;2.90;1.10;;;9.30;1.00;;;;;;5079472;28;20176;-45
2024/01/24 00:58:14;;;;;;;3.00;1.23;;;9.30;1.00;;;;;;5096874;28;20422;-41
2024/01/24 01:00:40;;;;;;;7.53;1.43;;;9.30;1.00;;;;;;5096832;28;20173;-44
2024/01/24 01:03:05;;;;;;;3.10;1.30;;;9.30;1.00;;;;;;5097456;28;20253;-43
2024/01/24 01:05:31;;;;;;;4.60;1.30;;;9.30;1.00;;;;;;5097472;28;20226;-42
2024/01/24 01:07:56;;;;;;;3.80;2.10;;;9.30;1.00;;;;;;5097060;28;20301;-42
2024/01/24 01:10:22;;;;;;;5.00;1.37;;;9.30;1.00;;;;;;5097083;28;20184;-45
2024/01/24 01:12:47;;;;;;;3.90;1.50;;;9.30;1.00;;;;;;5097175;28;20470;-47
2024/01/24 01:15:13;;;;;;;4.53;1.13;;;9.30;1.00;;;;;;5097240;28;20553;-47
2024/01/24 01:17:38;;;;;;;2.10;1.10;;;9.40;1.00;;;;;;5097566;28;20231;-42
2024/01/24 01:20:09;;;;;;;4.40;1.30;;;9.40;4.90;;;;;;5097363;28;20508;-43
2024/01/24 01:22:35;;;;;;;5.90;1.40;;;9.40;30.90;;;;;;5097690;28;20183;-45
2024/01/24 01:25:00;;;;;;;6.17;1.63;;;9.40;19.50;;;;;;5096845;28;20466;-44
2024/01/24 01:27:26;;;;;;;2.00;1.00;;;9.40;52.30;;;;;;5097154;28;20604;-45
2024/01/24 01:29:51;;;;;;;6.80;1.83;;;9.40;99.90;;;;;;5097373;28;20168;-42
2024/01/24 01:32:17;;;;;;;4.90;1.40;;;9.40;99.90;;;;;;5096709;28;20559;-47
2024/01/24 01:34:42;;;;;;;6.37;1.40;;;9.50;99.90;;;;;;5097349;28;20458;-45
2024/01/24 01:37:08;;;;;;;7.30;1.50;;;9.40;99.90;;;;;;5096801;28;20554;-45
2024/01/24 01:39:33;;;;;;;3.87;1.20;;;9.40;99.90;;;;;;5096553;28;20199;-44
2024/01/24 01:41:59;;;;;;;3.47;1.33;;;9.50;99.90;;;;;;5097186;28;20183;-44
2024/01/24 01:44:24;;;;;;;3.40;1.23;;;9.50;99.90;;;;;;5097187;28;20249;-43
2024/01/24 01:46:53;;;;;;;4.40;1.53;;;9.40;99.90;;;;;;5079727;28;20196;-43
2024/01/24 01:49:19;;;;;;;4.23;1.30;;;9.50;99.90;;;;;;5062851;28;20489;-42
2024/01/24 01:51:45;;;;;;;5.70;1.37;;;9.60;99.90;;;;;;5097069;28;20535;-43
2024/01/24 01:54:12;;;;;;;6.27;2.77;;;9.60;99.90;;;;;;5096886;28;20409;-44
2024/01/24 01:56:38;;;;;;;5.60;1.30;;;9.60;99.90;;;;;;5078609;28;20431;-42
2024/01/24 01:59:05;;;;;;;3.77;1.77;;;9.60;99.90;;;;;;5078611;28;20507;-49
2024/01/24 02:01:30;;;;;;;2.63;1.20;;;9.50;99.90;;;;;;5079353;28;20184;-45
2024/01/24 02:03:56;;;;;;;4.13;1.00;;;9.50;1.00;;;;;;5096140;28;21041;-44
2024/01/24 02:06:22;;;;;;;7.00;1.40;;;9.50;1.00;;;;;;5096894;28;20177;-46
2024/01/24 02:08:48;;;;;;;4.80;1.50;;;9.50;1.00;;;;;;5096475;28;20212;-42
2024/01/24 02:11:16;;;;;;;2.40;0.77;;;9.50;1.00;;;;;;5096298;28;20896;-42
2024/01/24 02:13:42;;;;;;;3.00;1.13;;;9.50;1.00;;;;;;5028553;28;20300;-45
2024/01/24 02:16:09;;;;;;;3.50;1.10;;;9.50;37.30;;;;;;5078324;28;20721;-45
2024/01/24 02:18:34;;;;;;;2.20;1.00;;;9.40;99.90;;;;;;5095778;28;20208;-42
2024/01/24 02:21:00;;;;;;;4.10;1.17;;;9.40;99.90;;;;;;5096286;28;20414;-43
2024/01/24 02:23:26;;;;;;;2.03;0.77;;;9.40;99.90;;;;;;5096482;28;20210;-41
2024/01/24 02:25:52;;;;;;;3.63;1.40;;;9.40;99.90;;;;;;5061604;28;20196;-44
2024/01/24 02:28:18;;;;;;;7.83;1.43;;;9.40;99.90;;;;;;5096509;28;20732;-43
2024/01/24 02:30:44;;;;;;;2.00;1.00;;;9.40;99.90;;;;;;5096745;28;20434;-44
2024/01/24 02:33:10;;;;;;;3.50;1.30;;;9.40;99.90;;;;;;5097027;28;20882;-44
2024/01/24 02:35:35;;;;;;;3.40;1.37;;;9.30;1.00;;;;;;5078524;28;20212;-44
2024/01/24 02:38:01;;;;;;;5.63;1.57;;;9.30;1.00;;;;;;5096481;28;20438;-45
2024/01/24 02:40:27;;;;;;;2.60;0.83;;;9.30;1.00;;;;;;5096446;28;20200;-42
2024/01/24 02:42:53;;;;;;;5.77;1.27;;;9.30;32.60;;;;;;5095718;28;20196;-43
2024/01/24 02:45:19;;;;;;;2.60;1.07;;;9.40;8.30;;;;;;5096879;28;20180;-48
2024/01/24 02:47:44;;;;;;;3.60;1.00;;;9.30;21.90;;;;;;5096078;28;20473;-41
2024/01/24 02:50:10;;;;;;;2.90;1.10;;;9.40;99.90;;;;;;5096274;28;20453;-44
2024/01/24 02:52:36;;;;;;;3.23;1.40;;;9.40;99.90;;;;;;5096079;28;20199;-42
2024/01/24 02:55:02;;;;;;;3.13;1.30;;;9.40;99.90;;;;;;5096464;28;20708;-41
2024/01/24 02:57:27;;;;;;;6.70;1.27;;;9.40;99.90;;;;;;5096189;28;20173;-43
2024/01/24 02:59:53;;;;;;;6.90;1.40;;;9.40;99.90;;;;;;5078157;28;20427;-41
2024/01/24 03:02:18;;;;;;;7.93;1.30;;;9.40;99.90;;;;;;5096040;28;20203;-45
2024/01/24 03:04:44;;;;;;;4.83;1.03;;;9.40;99.90;;;;;;5096105;28;20282;-43
2024/01/24 03:07:09;;;;;;;6.70;1.80;;;9.40;1.00;;;;;;5096048;28;20191;-45
2024/01/24 03:09:35;;;;;;;6.40;1.80;;;9.30;1.00;;;;;;5096086;28;20165;-45
2024/01/24 03:12:00;;;;;;;3.20;1.40;;;9.30;1.00;;;;;;5095728;28;20172;-43
2024/01/24 03:14:26;;;;;;;2.53;1.10;;;9.40;1.00;;;;;;5095894;28;20279;-43
2024/01/24 03:16:51;;;;;;;2.63;0.90;;;9.30;1.00;;;;;;5096807;28;20289;-42
2024/01/24 03:19:17;;;;;;;4.03;1.57;;;9.30;1.00;;;;;;5099846;28;20207;-44
2024/01/24 03:21:43;;;;;;;3.40;1.30;;;9.40;1.00;;;;;;5099502;28;20199;-41
2024/01/24 03:24:08;;;;;;;2.67;1.40;;;9.40;1.00;;;;;;5099453;28;20220;-44
2024/01/24 03:26:34;;;;;;;6.33;1.33;;;9.40;65.10;;;;;;5064976;28;20854;-43
2024/01/24 03:28:59;;;;;;;4.23;1.57;;;9.40;75.60;;;;;;5099471;28;20216;-45
2024/01/24 03:31:25;;;;;;;5.80;1.20;;;9.40;99.90;;;;;;5081855;28;20215;-42
2024/01/24 03:33:51;;;;;;;6.67;1.27;;;9.40;99.90;;;;;;5081371;28;20184;-46
2024/01/24 03:36:16;;;;;;;3.70;1.23;;;9.50;99.90;;;;;;5099422;28;20180;-43
2024/01/24 03:38:43;;;;;;;3.40;1.10;;;9.50;99.90;;;;;;5099345;28;20438;-47
2024/01/24 03:41:08;;;;;;;6.10;1.27;;;9.50;99.90;;;;;;5098543;28;20183;-43
2024/01/24 03:43:37;;;;;;;2.33;1.17;;;9.50;99.90;;;;;;5098702;28;20852;-47
2024/01/24 03:46:03;;;;;;;3.00;1.20;;;9.50;99.90;;;;;;5081368;28;20184;-46
2024/01/24 03:48:28;;;;;;;6.17;1.60;;;9.50;99.90;;;;;;5099026;28;20481;-45
2024/01/24 03:50:54;;;;;;;2.37;1.40;;;9.60;99.90;;;;;;5099083;28;20172;-41
2024/01/24 03:53:20;;;;;;;2.60;1.30;;;9.70;99.90;;;;;;5098764;28;20188;-44
2024/01/24 03:55:45;;;;;;;3.10;2.03;;;9.70;99.90;;;;;;5098132;28;20196;-42
2024/01/24 03:58:11;;;;;;;2.30;1.47;;;9.70;99.90;;;;;;5098611;28;20180;-43
2024/01/24 04:00:36;;;;;;;3.50;1.20;;;9.80;99.90;;;;;;5098486;28;20577;-43
2024/01/24 04:03:02;;;;;;;3.43;1.67;;;9.80;99.90;;;;;;5098600;28;20267;-43
2024/01/24 04:05:27;;;;;;;3.63;1.50;;;9.80;99.90;;;;;;5097485;28;20272;-40
2024/01/24 04:07:53;;;;;;;2.40;1.37;;;9.90;99.90;;;;;;5097638;28;20216;-45
2024/01/24 04:10:18;;;;;;;3.60;1.33;;;9.90;99.90;;;;;;5098730;28;20184;-43
2024/01/24 04:12:44;;;;;;;5.47;1.57;;;9.90;99.90;;;;;;5078827;28;20465;-46
2024/01/24 04:15:10;;;;;;;2.10;1.20;;;10.00;99.90;;;;;;5097156;28;20263;-42
2024/01/24 04:17:35;;;;;;;4.13;1.40;;;10.00;99.90;;;;;;5096190;28;20694;-44
2024/01/24 04:20:01;;;;;;;5.00;1.40;;;10.10;99.90;;;;;;5097497;28;20196;-43
2024/01/24 04:22:26;;;;;;;1.97;1.00;;;10.10;99.90;;;;;;5097135;28;20180;-42
2024/01/24 04:24:52;;;;;;;4.50;1.63;;;10.10;99.90;;;;;;5097356;28;20327;-43
2024/01/24 04:27:18;;;;;;;7.40;1.83;;;10.10;99.90;;;;;;5098026;28;20247;-43
2024/01/24 04:29:43;;;;;;;4.70;1.20;;;10.10;99.90;;;;;;5098364;28;20199;-47
2024/01/24 04:32:09;;;;;;;2.50;1.20;;;10.20;99.90;;;;;;5096877;28;20257;-43
2024/01/24 04:34:35;;;;;;;3.17;1.07;;;10.10;1.00;;;;;;5096310;28;20192;-43
2024/01/24 04:37:01;;;;;;;6.03;1.43;;;10.10;1.00;;;;;;5096261;28;20198;-45
2024/01/24 04:39:26;;;;;;;4.83;1.40;;;10.10;1.00;;;;;;5078391;28;20411;-44
2024/01/24 04:41:52;;;;;;;4.07;1.43;;;10.20;1.00;;;;;;5095863;28;20169;-44
2024/01/24 04:44:17;;;;;;;2.93;1.37;;;10.20;1.00;;;;;;5096131;28;20458;-41
2024/01/24 04:46:43;;;;;;;3.30;1.70;;;10.20;1.00;;;;;;5096541;28;20549;-46
2024/01/24 04:49:08;;;;;;;2.20;1.30;;;10.30;1.00;;;;;;5096930;28;20212;-43
2024/01/24 04:51:34;;;;;;;5.27;1.47;;;10.30;1.00;;;;;;5096655;28;20173;-42
2024/01/24 04:54:00;;;;;;;4.13;1.40;;;10.30;1.00;;;;;;5095764;28;20165;-43
2024/01/24 04:56:27;;;;;;;4.97;1.23;;;10.30;1.00;;;;;;5079661;28;20414;-45
2024/01/24 04:58:52;;;;;;;3.33;1.40;;;10.30;1.00;;;;;;5098041;28;20426;-44
2024/01/24 05:01:18;;;;;;;2.37;1.30;;;10.30;1.00;;;;;;5097715;28;20482;-44
2024/01/24 05:03:43;;;;;;;8.03;1.63;;;10.40;1.00;;;;;;5097309;28;20180;-43
2024/01/24 05:06:09;;;;;;;9.20;1.70;;;10.40;1.00;;;;;;5096812;28;20348;-42
2024/01/24 05:08:34;;;;;;;4.40;1.93;;;10.40;1.00;;;;;;5078718;28;20247;-43
2024/01/24 05:11:00;;;;;;;2.67;1.30;;;10.40;1.00;;;;;;5096946;28;20180;-42
2024/01/24 05:13:25;;;;;;;2.60;1.20;;;10.50;1.00;;;;;;5078317;28;20188;-44
2024/01/24 05:15:51;;;;;;;4.23;1.30;;;10.50;1.00;;;;;;5094044;28;20192;-43
2024/01/24 05:18:16;;;;;;;2.73;1.13;;;10.50;1.00;;;;;;5095422;28;20188;-42
2024/01/24 05:20:42;;;;;;;4.63;1.30;;;10.50;1.00;;;;;;5095519;28;20601;-43
2024/01/24 05:23:07;;;;;;;2.80;1.43;;;10.40;1.00;;;;;;5095626;28;20223;-42
2024/01/24 05:25:33;;;;;;;4.93;1.50;;;10.40;1.00;;;;;;5094600;28;20263;-43
2024/01/24 05:27:59;;;;;;;3.17;1.17;;;10.40;1.00;;;;;;5095690;28;20236;-43
2024/01/24 05:30:25;;;;;;;3.43;1.27;;;10.40;1.00;;;;;;5095172;28;20469;-44
2024/01/24 05:32:54;;;;;;;2.90;1.47;;;10.30;1.00;;;;;;5094773;28;20161;-42
2024/01/24 05:35:20;;;;;;;2.60;1.07;;;10.40;1.00;;;;;;5095868;28;20267;-43
2024/01/24 05:37:46;;;;;;;8.17;2.07;;;10.40;1.00;;;;;;5095645;28;20469;-46
2024/01/24 05:40:12;;;;;;;3.57;1.20;;;10.30;1.00;;;;;;5094738;28;20973;-43
2024/01/24 05:42:38;;;;;;;2.30;1.23;;;10.30;1.00;;;;;;5096171;28;20418;-42
2024/01/24 05:45:04;;;;;;;4.10;1.47;;;10.40;1.00;;;;;;5095110;28;20188;-42
2024/01/24 05:47:30;;;;;;;2.77;1.40;;;10.40;1.00;;;;;;5096492;28;20474;-43
2024/01/24 05:49:55;;;;;;;4.00;1.60;;;10.40;30.00;;;;;;5095560;28;20418;-41
2024/01/24 05:52:21;;;;;;;2.83;1.50;;;10.40;26.70;;;;;;5094728;28;20176;-43
2024/01/24 05:54:46;;;;;;;5.00;1.47;;;10.40;97.20;;;;;;5094088;28;20180;-43
2024/01/24 05:57:12;;;;;;;4.40;1.90;;;10.40;99.90;;;;;;5094277;28;20422;-43
2024/01/24 05:59:37;;;;;;;2.90;1.17;;;10.50;99.90;;;;;;5094661;28;20598;-41
2024/01/24 06:02:05;;;;;;;3.10;1.67;;;10.50;99.90;;;;;;5094620;28;20501;-45
2024/01/24 06:04:31;;;;;;;3.77;1.60;;;10.50;99.90;;;;;;5093794;28;20509;-44
2024/01/24 06:07:00;;;;;;;1.77;1.23;;;10.50;99.90;;;;;;5093639;28;20521;-42
2024/01/24 06:09:28;;;;;;;5.87;1.60;;;10.60;99.90;;;;;;5093808;28;20613;-41
2024/01/24 06:11:54;;;;;;;2.47;1.33;;;10.60;99.90;;;;;;5094542;28;20519;-43
2024/01/24 06:14:19;;;;;;;2.87;1.20;;;10.60;99.90;;;;;;5093329;28;20454;-44
2024/01/24 06:16:45;;;;;;;5.57;1.50;;;10.60;99.90;;;;;;5095042;28;20193;-44
2024/01/24 06:19:11;;;;;;;4.17;1.47;;;10.70;99.90;;;;;;5096008;28;20211;-45
2024/01/24 06:21:36;;;;;;;1.83;0.90;;;10.70;99.90;;;;;;5096158;28;20168;-46
2024/01/24 06:24:02;;;;;;;2.70;1.57;;;10.70;99.90;;;;;;5094463;28;20224;-44
2024/01/24 06:26:28;;;;;;;2.80;1.20;;;10.80;99.90;;;;;;5093817;28;20279;-43
2024/01/24 06:28:53;;;;;;;2.77;1.23;;;10.80;99.90;;;;;;5094771;28;20636;-43
2024/01/24 06:31:19;;;;;;;2.27;1.00;;;10.80;99.90;;;;;;5077855;28;20212;-42
2024/01/24 06:33:44;;;;;;;1.30;0.90;;;10.80;99.90;;;;;;5077467;28;20253;-43
2024/01/24 06:36:10;;;;;;;2.80;1.20;;;10.80;99.90;;;;;;5095331;28;20184;-42
2024/01/24 06:38:35;;;;;;;2.90;1.40;;;10.80;99.90;;;;;;5094553;28;20187;-41
2024/01/24 06:41:01;;;;;;;1.90;1.20;;;10.90;99.90;;;;;;5093077;28;20191;-42
2024/01/24 06:43:26;;;;;;;1.80;0.93;;;10.90;99.90;;;;;;5092921;28;20458;-43
2024/01/24 06:45:52;;;;;;;1.80;0.90;;;10.90;99.90;;;;;;5093569;28;20189;-42
2024/01/24 06:48:18;;;;;;;1.50;0.90;;;10.90;99.90;;;;;;5074575;28;20594;-43
2024/01/24 06:50:44;;;;;;;2.50;0.93;;;10.90;99.90;;;;;;5091884;28;20176;-44
2024/01/24 06:53:14;;;;;;;2.37;0.77;;;11.00;99.90;;;;;;5094251;28;20196;-41
2024/01/24 06:55:40;;;;;;;2.03;0.93;;;11.00;99.90;;;;;;5095997;28;20418;-42
2024/01/24 06:58:05;;;;;;;2.07;0.90;;;11.00;99.90;;;;;;5096466;28;20836;-43
2024/01/24 07:00:32;;;;;;;3.30;1.10;;;10.90;99.90;;;;;;5096908;28;20184;-43
2024/01/24 07:02:58;;;;;;;1.43;1.10;;;11.00;99.90;;;;;;5078064;28;20541;-45
2024/01/24 07:05:23;;;;;;;4.07;1.53;;;11.00;99.90;;;;;;5097392;28;20514;-41
2024/01/24 07:07:49;;;;;;;1.60;1.13;;;11.10;99.90;;;;;;5098266;28;20469;-44
2024/01/24 07:10:14;;;;;;;5.60;1.10;;;11.00;99.90;;;;;;5098710;28;20173;-43
2024/01/24 07:12:45;;;;;;;2.50;0.87;;;11.10;99.90;;;;;;5098309;28;20280;-41
2024/01/24 07:15:11;;;;;;;1.57;1.00;;;11.10;99.90;;;;;;5097543;28;20171;-43
2024/01/24 07:17:36;;;;;;;3.03;1.27;;;11.10;99.90;;;;;;5098159;28;20422;-44
2024/01/24 07:20:02;;;;;;;1.63;1.00;;;11.10;99.90;;;;;;5098919;28;21023;-42
2024/01/24 07:22:28;;;;;;;1.63;1.00;;;11.10;99.90;;;;;;5098123;28;20180;-41
2024/01/24 07:24:53;;;;;;;4.13;1.10;;;11.10;99.90;;;;;;5096873;28;20488;-41
2024/01/24 07:27:19;;;;;;;1.77;1.03;;;11.10;99.90;;;;;;5098709;28;20275;-42
2024/01/24 07:29:44;;;;;;;1.33;0.97;;;11.10;99.90;;;;;;5097905;28;20176;-41
2024/01/24 07:32:10;;;;;;;3.70;1.20;;;11.10;99.90;;;;;;5096541;28;20545;-42
2024/01/24 07:34:38;;;;;;;2.80;1.30;;;11.10;99.90;;;;;;5097766;28;20191;-42
2024/01/24 07:37:04;;;;;;;3.60;1.57;;;11.10;99.90;;;;;;5098147;28;20192;-43
2024/01/24 07:39:29;;;;;;;2.00;1.40;;;11.10;99.90;;;;;;5097239;28;20835;-41
2024/01/24 07:41:55;;;;;;;3.03;0.80;;;11.20;99.90;;;;;;5098886;28;20204;-46
2024/01/24 07:44:21;;;;;;;2.47;1.27;;;11.20;99.90;;;;;;5098105;28;20642;-42
2024/01/24 07:46:47;;;;;;;1.87;1.00;;;11.20;99.90;;;;;;5097897;28;20540;-43
2024/01/24 07:49:12;;;;;;;1.20;0.77;;;11.20;99.90;;;;;;5097521;28;20290;-43
2024/01/24 07:51:38;;;;;;;2.63;0.80;;;11.20;99.90;;;;;;5098009;28;20184;-42
2024/01/24 07:54:04;;;;;;;2.47;1.07;;;11.30;99.90;;;;;;5097929;28;20255;-43
2024/01/24 07:56:30;;;;;;;2.53;1.20;;;11.30;99.90;;;;;;5097487;28;20180;-42
2024/01/24 07:58:55;;;;;;;1.60;0.90;;;11.30;99.90;;;;;;5096964;28;20430;-43
2024/01/24 08:01:21;;;;;;;2.20;1.10;;;11.30;99.90;;;;;;5097002;28;20554;-43
2024/01/24 08:03:46;;;;;;;2.03;0.90;;;11.30;99.90;;;;;;5077304;28;20238;-43
2024/01/24 08:06:12;;;;;;;1.33;0.90;;;11.30;99.90;;;;;;5094228;28;20583;-44
2024/01/24 08:08:37;;;;;;;2.57;1.13;;;11.40;99.90;;;;;;5095679;28;20352;-46
2024/01/24 08:11:03;;;;;;;1.00;0.70;;;11.40;99.90;;;;;;5095406;28;20558;-43
2024/01/24 08:13:29;;;;;;;1.87;0.90;;;11.40;99.90;;;;;;5095666;28;20176;-41
2024/01/24 08:15:55;;;;;;;0.80;0.50;;;11.40;99.90;;;;;;5096149;28;20184;-41
2024/01/24 08:18:20;;;;;;;1.40;0.80;;;11.50;99.90;;;;;;5095366;28;20426;-43
2024/01/24 08:20:46;;;;;;;1.00;0.50;;;11.50;99.90;;;;;;5097079;28;20562;-43
2024/01/24 08:23:11;;;;;;;1.30;0.70;;;11.50;99.90;;;;;;5097783;28;20186;-44
2024/01/24 08:25:37;;;;;;;1.30;0.40;;;11.50;99.90;;;;;;5096465;28;20236;-44
2024/01/24 08:28:03;;;;;;;1.13;0.57;;;11.60;99.90;;;;;;5097130;28;20235;-43
2024/01/24 08:30:30;;;;;;;1.17;0.73;;;11.60;99.90;;;;;;5097337;28;20259;-44
2024/01/24 08:32:55;;;;;;;1.10;0.60;;;11.60;99.90;;;;;;5096912;28;20407;-41
2024/01/24 08:35:21;;;;;;;1.00;0.60;;;11.60;99.90;;;;;;5096713;28;20844;-43
2024/01/24 08:37:46;;;;;;;2.03;0.60;;;11.60;99.90;;;;;;5096731;28;20450;-42
2024/01/24 08:40:12;;;;;;;1.60;1.00;;;11.70;99.90;;;;;;5096278;28;20599;-44
2024/01/24 08:42:38;;;;;;;0.90;0.47;;;11.70;99.90;;;;;;5096590;28;20538;-44
2024/01/24 08:45:04;;;;;;;1.30;0.60;;;11.70;99.90;;;;;;5096519;28;20177;-42
2024/01/24 08:47:29;;;;;;;1.43;0.60;;;11.80;99.90;;;;;;5096961;28;20255;-41
2024/01/24 08:49:56;;;;;;;0.90;0.47;;;11.80;99.90;;;;;;5079533;28;20480;-41
2024/01/24 08:52:22;;;;;;;0.83;0.60;;;11.80;99.90;;;;;;5097753;28;20172;-42
2024/01/24 08:54:48;;;;;;;2.70;0.67;;;11.90;99.90;;;;;;5096928;28;20424;-41
2024/01/24 08:57:14;;;;;;;0.80;0.40;;;11.90;99.90;;;;;;5096794;28;20399;-45
2024/01/24 08:59:40;;;;;;;0.90;0.50;;;11.90;99.90;;;;;;5095061;28;20449;-43
2024/01/24 09:02:07;;;;;;;1.27;0.50;;;11.90;99.90;;;;;;5061568;28;20169;-42
2024/01/24 09:04:32;;;;;;;0.80;0.40;;;12.00;99.90;;;;;;5078523;28;20219;-41
2024/01/24 09:06:58;;;;;;;0.90;0.40;;;12.00;99.90;;;;;;5062551;28;20462;-44
2024/01/24 09:09:25;;;;;;;2.40;1.03;;;12.00;99.90;;;;;;5097041;28;20458;-40
2024/01/24 09:11:52;;;;;;;0.80;0.40;;;12.00;99.90;;;;;;5096151;28;20214;-44
2024/01/24 09:14:18;;;;;;;3.37;1.00;;;12.10;99.90;;;;;;5077256;28;20513;-42
2024/01/24 09:16:43;;;;;;;1.10;0.40;;;12.10;99.90;;;;;;5094759;28;20261;-42
2024/01/24 09:19:09;;;;;;;1.00;0.60;;;12.10;99.90;;;;;;5094347;28;20906;-42
2024/01/24 09:21:35;;;;;;;1.60;0.60;;;12.10;99.90;;;;;;5093713;28;20566;-42
2024/01/24 09:24:00;;;;;;;1.00;0.70;;;12.10;99.90;;;;;;5094158;28;20683;-41
2024/01/24 09:26:26;;;;;;;1.00;0.50;;;12.10;99.90;;;;;;5096126;28;20266;-43
2024/01/24 09:28:51;;;;;;;1.20;0.97;;;12.00;99.90;;;;;;5095060;28;20466;-42
2024/01/24 09:31:17;;;;;;;1.40;0.40;;;11.90;99.90;;;;;;5095977;28;20184;-43
2024/01/24 09:33:42;;;;;;;1.00;0.57;;;11.90;99.90;;;;;;5095977;28;20165;-44
2024/01/24 09:36:08;;;;;;;1.17;0.80;;;11.80;99.90;;;;;;5096794;28;20164;-43
2024/01/24 09:38:33;;;;;;;1.33;0.50;;;11.70;1.00;;;;;;5097419;28;20234;-41
2024/01/24 09:41:00;;;;;;;0.90;0.60;;;11.70;1.00;;;;;;5096511;28;20207;-42
2024/01/24 09:43:28;;;;;;;0.80;0.50;;;11.60;1.00;;;;;;5076089;28;20256;-44
2024/01/24 09:45:56;;;;;;;0.80;0.50;;;11.70;1.00;;;;;;5093097;28;20431;-45
2024/01/24 09:48:22;;;;;;;2.90;0.60;;;11.70;1.00;;;;;;5104722;28;20917;-48
2024/01/24 09:50:48;;;;;;;1.63;0.97;;;11.90;1.00;;;;;;5114116;28;20433;-51
2024/01/24 09:53:17;;;;;;;0.90;0.50;;;12.10;1.00;;;;;;5115458;28;20168;-46
2024/01/24 09:55:43;;;;;;;1.30;0.60;;;12.50;99.90;;;;;;5114952;28;20436;-41
2024/01/24 09:58:08;;;;;;;2.20;1.73;;;12.50;99.90;;;;;;5095935;28;20421;-41
2024/01/24 10:00:34;;;;;;;3.33;0.80;;;12.50;99.90;;;;;;5097774;28;20451;-43
2024/01/24 10:02:59;;;;;;;1.33;0.70;;;12.30;99.90;;;;;;5114188;28;20531;-41
2024/01/24 10:05:25;;;;;;;0.90;0.60;;;12.40;99.90;;;;;;5114670;28;20167;-40
2024/01/24 10:07:51;;;;;;;1.30;0.50;;;12.50;99.90;;;;;;5115274;28;20524;-41
2024/01/24 10:10:16;;;;;;;1.03;0.60;;;12.50;99.90;;;;;;5115420;28;20418;-43
2024/01/24 10:12:42;;;;;;;1.07;0.60;;;12.50;99.90;;;;;;5115839;28;20200;-43
2024/01/24 10:15:09;;;;;;;1.73;0.70;;;12.50;99.90;;;;;;5096789;28;20164;-46
2024/01/24 10:17:35;;;;;;;1.00;0.63;;;12.40;99.90;;;;;;5115249;28;20413;-42
2024/01/24 10:20:00;;;;;;;1.53;0.73;;;12.40;99.90;;;;;;5114536;28;20437;-44
2024/01/24 10:22:26;;;;;;;0.93;0.50;;;12.50;99.90;;;;;;5096462;28;20225;-43
2024/01/24 10:24:55;;;;;;;1.10;0.57;;;12.90;99.90;;;;;;5114473;28;20228;-41
2024/01/24 10:27:20;;;;;;;1.30;0.53;;;13.40;9.50;;;;;;5117213;28;20176;-43
2024/01/24 10:29:46;;;;;;;1.30;0.70;;;13.50;1.00;;;;;;5118758;28;20436;-44
2024/01/24 10:32:12;;;;;;;0.90;0.57;;;13.60;1.00;;;;;;5118775;28;20179;-42
2024/01/24 10:34:38;;;;;;;0.90;0.50;;;13.50;1.00;;;;;;5119483;28;20580;-41
2024/01/24 10:37:06;;;;;;;2.57;0.80;;;13.50;1.00;;;;;;5118921;28;20532;-43
2024/01/24 10:39:34;;;;;;;1.33;0.77;;;13.50;1.00;;;;;;5118676;28;20449;-42
2024/01/24 10:42:03;;;;;;;1.30;0.70;;;13.40;1.00;;;;;;5119249;28;20899;-41
2024/01/24 10:44:32;;;;;;;1.37;0.60;;;13.30;1.00;;;;;;5117641;28;20421;-44
2024/01/24 10:46:58;;;;;;;1.57;0.60;;;13.30;1.00;;;;;;5118341;28;20429;-41
2024/01/24 10:49:24;;;;;;;0.83;0.43;;;13.20;1.00;;;;;;5100981;28;20529;-41
2024/01/24 10:51:50;;;;;;;1.10;0.50;;;13.20;1.00;;;;;;5100885;28;20233;-42
2024/01/24 10:54:17;;;;;;;1.10;0.60;;;13.10;1.00;;;;;;5120097;28;20410;-45
2024/01/24 10:56:49;;;;;;;0.97;0.50;;;13.00;1.00;;;;;;5101422;28;20815;-41
2024/01/24 10:59:15;;;;;;;0.80;0.40;;;12.90;1.00;;;;;;5118531;28;20433;-42
2024/01/24 11:01:41;;;;;;;1.03;0.70;;;12.80;57.80;;;;;;5118089;28;20893;-44
2024/01/24 11:04:07;;;;;;;1.03;0.70;;;12.70;99.90;;;;;;5100346;28;20190;-41
2024/01/24 11:06:34;;;;;;;1.30;0.77;;;12.60;99.90;;;;;;5099199;28;20171;-41
2024/01/24 11:09:08;;;;;;;1.10;0.70;;;12.50;99.90;;;;;;5117837;28;20464;-41
2024/01/24 11:11:35;;;;;;;0.77;0.43;;;12.30;99.90;;;;;;5101080;28;20468;-43
2024/01/24 11:14:01;;;;;;;1.83;0.50;;;12.30;99.90;;;;;;5118537;28;20433;-42
2024/01/24 11:16:38;;;;;;;1.30;0.80;;;12.20;1.00;;;;;;5118413;28;20433;-44
2024/01/24 11:19:21;;;;;;;0.83;0.40;;;12.20;1.00;;;;;;5098999;28;20454;-40
2024/01/24 11:21:48;;;;;;;2.60;0.57;;;12.10;1.00;;;;;;5117950;28;20583;-44
2024/01/24 11:24:22;;;;;;;1.00;0.50;;;12.20;1.00;;;;;;5116903;28;20479;-43
2024/01/24 11:26:48;;;;;;;0.93;0.50;;;12.40;99.90;;;;;;5099012;28;20433;-42
2024/01/24 11:29:14;;;;;;;1.00;0.50;;;12.60;99.90;;;;;;5116675;28;20482;-43
2024/01/24 11:31:41;;;;;;;1.10;0.50;;;12.70;99.90;;;;;;5118063;28;20178;-43
2024/01/24 11:34:11;;;;;;;0.90;0.50;;;12.70;99.90;;;;;;5117349;28;20586;-43
2024/01/24 11:36:52;;;;;;;1.30;0.70;;;12.70;99.90;;;;;;5116884;28;20417;-41
2024/01/24 11:39:34;;;;;;;1.10;0.60;;;12.80;99.90;;;;;;5116817;28;20846;-41
2024/01/24 11:42:25;;;;;;;1.00;0.57;;;12.70;99.90;;;;;;5117460;28;20421;-43
2024/01/24 11:44:52;;;;;;;0.80;0.40;;;12.80;99.90;;;;;;5116935;28;20429;-42
2024/01/24 11:47:19;;;;;;;1.00;0.60;;;12.80;3.90;;;;;;5116516;28;20449;-43
2024/01/24 11:49:48;;;;;;;1.50;0.67;;;12.70;36.50;;;;;;5117974;28;20494;-43
2024/01/24 11:52:20;;;;;;;1.10;0.70;;;12.70;17.30;;;;;;5117523;28;20737;-43
2024/01/24 11:54:52;;;;;;;0.70;0.40;;;12.70;8.60;;;;;;5116586;28;20945;-42
2024/01/24 11:57:18;;;;;;;0.80;0.50;;;12.60;50.90;;;;;;5116993;28;20490;-42
2024/01/24 11:59:44;;;;;;;1.17;0.70;;;12.60;1.00;;;;;;5117373;28;20794;-44
2024/01/24 12:02:09;;;;;;;2.30;0.70;;;12.60;1.00;;;;;;5097298;28;20460;-43
2024/01/24 12:04:35;;;;;;;1.40;0.70;;;12.70;1.00;;;;;;5099370;28;20618;-43
2024/01/24 12:07:01;;;;;;;4.60;0.70;;;12.70;99.90;;;;;;5099056;28;20180;-41
2024/01/24 12:09:26;;;;;;;2.40;0.53;;;12.60;99.90;;;;;;5116701;28;20478;-41
2024/01/24 12:11:52;;;;;;;1.87;0.77;;;12.60;99.90;;;;;;5115161;28;20501;-42
2024/01/24 12:14:19;;;;;;;1.67;0.60;;;12.50;99.90;;;;;;5096920;28;20457;-46
2024/01/24 12:16:45;;;;;;;1.77;0.63;;;12.40;99.90;;;;;;5097133;28;20426;-43
2024/01/24 12:19:11;;;;;;;2.13;0.67;;;12.40;99.90;;;;;;5080600;28;20486;-44
2024/01/24 12:21:37;;;;;;;1.70;0.60;;;12.40;99.90;;;;;;5115136;28;20425;-42
2024/01/24 12:24:03;;;;;;;1.57;0.50;;;12.20;1.00;;;;;;5116196;28;20461;-42
2024/01/24 12:26:30;;;;;;;1.33;0.60;;;12.10;5.60;;;;;;5116083;28;20908;-43
2024/01/24 12:28:56;;;;;;;2.70;0.50;;;12.00;50.40;;;;;;5098368;28;20220;-45
2024/01/24 12:31:21;;;;;;;0.90;0.30;;;11.90;15.50;;;;;;5116482;28;20423;-41
2024/01/24 12:33:47;;;;;;;0.80;0.47;;;11.80;40.40;;;;;;5097032;28;20248;-42
2024/01/24 12:36:12;;;;;;;1.23;0.40;;;11.80;49.60;;;;;;5114843;28;20186;-43
2024/01/24 12:38:38;;;;;;;1.10;0.50;;;11.80;99.90;;;;;;5114588;28;20171;-41
2024/01/24 12:41:04;;;;;;;0.77;0.37;;;11.80;99.90;;;;;;5111807;28;20172;-42
2024/01/24 12:43:30;;;;;;;1.07;0.43;;;11.80;39.70;;;;;;5096019;28;20462;-40
2024/01/24 12:45:55;;;;;;;1.37;0.50;;;11.80;18.50;;;;;;5115843;28;20270;-42
2024/01/24 12:48:22;;;;;;;2.53;0.57;;;11.90;1.00;;;;;;5098745;28;20860;-44